ENLK

Leknes Airport

Leknes, Norway
METAR ENLK 211150Z 30012KT 9999 FEW010 BKN085 15/13 Q1008
Observed Flight Rules
Jul-21 @ 11:50 UTC (2 hours ago) Visual Flight Rules
Wind Visibility Clouds
300° at 12 knots 10,000+ meters
  • Few at 1,000' AGL
  • Broken at 8,500' AGL
Temperatures Readings
Current 15°C / 59°F
Dewpoint 13°C / 55°F
Humidity 88%
Altimeter 29.76" Hg
Pressure 1008 hPa
Elevation 26
METAR ENLK 211150Z 30012KT 9999 FEW010 BKN085 15/13 Q1008
Observed Flight Rules
Jul-21 @ 11:50 UTC
(2 hours ago)
VFR
Wind Visibility
300° at 12 knots 10,000+ meters
Clouds
  • Few at 1,000' AGL
  • Broken at 8,500' AGL
Temperature Dewpoint
15°C / 59°F 13°C / 55°F
Humidity Altimeter Pressure
88% 29.76" Hg 1008 hPa